Time;durP1;ratioP1;P1;durP2;ratioP2;P2;SDS_P1;SDS_P2;PMS_P1;PMS_P2;Temp;Humidity;BMP_temperature;BMP_pressure;BME280_temperature;BME280_humidity;BME280_pressure;Samples;Min_cycle;Max_cycle;Signal;HPM_P1;HPM_P2
2022/04/30 00:00:40;;;;;;;2.78;2.03;;;16.70;91.80;;;;;;5063468;28;20048;-80
2022/04/30 00:03:09;;;;;;;4.35;1.90;;;16.60;92.00;;;;;;5056997;28;20052;-81
2022/04/30 00:05:37;;;;;;;4.65;2.00;;;16.50;92.30;;;;;;5057452;28;20043;-81
2022/04/30 00:08:06;;;;;;;2.75;1.90;;;16.50;92.90;;;;;;5061401;28;20059;-81
2022/04/30 00:10:37;;;;;;;5.03;2.08;;;16.30;94.40;;;;;;5050324;28;20072;-80
2022/04/30 00:13:10;;;;;;;4.35;2.35;;;16.10;95.90;;;;;;5059659;28;20712;-80
2022/04/30 00:15:38;;;;;;;2.58;1.98;;;16.00;96.70;;;;;;5059573;28;20055;-82
2022/04/30 00:18:08;;;;;;;3.55;2.28;;;16.10;96.00;;;;;;5051903;28;20522;-81
2022/04/30 00:20:37;;;;;;;3.65;2.08;;;16.10;95.50;;;;;;5053210;28;20045;-81
2022/04/30 00:23:05;;;;;;;2.67;1.88;;;16.10;94.90;;;;;;5060864;28;20036;-81
2022/04/30 00:25:33;;;;;;;2.75;1.70;;;16.00;94.10;;;;;;5051555;28;20062;-81
2022/04/30 00:28:01;;;;;;;2.42;1.75;;;15.90;94.30;;;;;;5045244;28;20114;-81
2022/04/30 00:30:31;;;;;;;3.75;2.03;;;15.80;95.00;;;;;;5068236;28;20337;-81
2022/04/30 00:32:59;;;;;;;3.53;1.73;;;15.40;95.40;;;;;;5055782;28;20155;-79
2022/04/30 00:35:27;;;;;;;1.77;1.45;;;14.90;96.40;;;;;;5053742;28;20044;-80
2022/04/30 00:37:55;;;;;;;4.70;2.17;;;15.00;96.70;;;;;;5058164;28;20055;-80
2022/04/30 00:40:23;;;;;;;3.50;1.98;;;15.30;96.60;;;;;;5057283;28;20048;-80
2022/04/30 00:42:51;;;;;;;2.55;1.98;;;15.50;96.20;;;;;;5063049;28;20067;-81
2022/04/30 00:45:20;;;;;;;4.65;2.20;;;15.40;95.90;;;;;;5058602;28;20044;-80
2022/04/30 00:47:50;;;;;;;3.08;2.28;;;15.50;96.20;;;;;;5039660;28;20045;-80
2022/04/30 00:50:21;;;;;;;3.35;2.10;;;15.30;96.70;;;;;;5047573;28;20052;-81
2022/04/30 00:52:52;;;;;;;4.47;2.20;;;15.30;96.70;;;;;;5057204;28;20098;-81
2022/04/30 00:55:22;;;;;;;3.28;2.17;;;15.30;96.70;;;;;;5066997;28;20045;-81
2022/04/30 00:57:54;;;;;;;3.72;2.33;;;15.50;96.70;;;;;;5057843;28;20039;-82
2022/04/30 01:00:22;;;;;;;3.47;2.10;;;15.60;96.70;;;;;;5053096;28;20053;-80
2022/04/30 01:03:14;;;;;;;4.03;2.40;;;15.40;96.70;;;;;;5058535;28;20052;-81
2022/04/30 01:05:45;;;;;;;2.67;1.65;;;15.40;96.70;;;;;;5051849;28;20146;-80
2022/04/30 01:08:13;;;;;;;4.05;2.13;;;15.30;96.70;;;;;;5050590;28;20060;-79
2022/04/30 01:10:41;;;;;;;6.75;2.70;;;15.30;96.70;;;;;;5051516;28;20405;-80
2022/04/30 01:13:12;;;;;;;3.20;2.53;;;15.30;96.70;;;;;;5055756;28;20056;-79
2022/04/30 01:15:40;;;;;;;3.17;2.22;;;15.30;96.70;;;;;;5054489;28;20454;-81
2022/04/30 01:18:10;;;;;;;4.40;2.10;;;15.30;96.70;;;;;;5051546;28;20406;-80
2022/04/30 01:20:43;;;;;;;3.65;1.90;;;15.30;96.70;;;;;;5072527;28;20082;-80
2022/04/30 01:23:13;;;;;;;3.63;2.42;;;15.20;96.70;;;;;;5067642;28;20040;-81
2022/04/30 01:25:42;;;;;;;2.70;1.50;;;15.00;96.70;;;;;;5052835;28;20154;-80
2022/04/30 01:28:12;;;;;;;3.72;1.80;;;15.00;96.70;;;;;;5052862;28;20072;-80
2022/04/30 01:30:40;;;;;;;2.67;1.63;;;15.00;96.70;;;;;;5060325;28;20048;-81
2022/04/30 01:38:42;;;;;;;2.63;1.40;;;14.90;96.70;;;;;;5056151;28;20051;-81
2022/04/30 01:41:10;;;;;;;1.90;1.70;;;14.90;96.70;;;;;;5043838;28;20406;-80
2022/04/30 01:43:38;;;;;;;3.10;1.48;;;14.90;96.70;;;;;;5049098;28;20061;-81
2022/04/30 01:46:07;;;;;;;2.22;1.42;;;14.80;96.70;;;;;;5049368;28;20049;-80
2022/04/30 01:48:36;;;;;;;4.38;2.53;;;14.80;96.70;;;;;;5049301;28;20387;-80
2022/04/30 01:51:04;;;;;;;2.22;1.40;;;14.80;96.70;;;;;;5057245;28;20122;-76
2022/04/30 01:53:32;;;;;;;2.80;1.45;;;14.70;96.70;;;;;;5052108;28;20041;-77
2022/04/30 01:56:01;;;;;;;1.70;1.45;;;14.80;96.70;;;;;;5059533;28;20752;-76
2022/04/30 01:58:45;;;;;;;3.10;1.73;;;14.80;96.70;;;;;;5051800;28;20044;-76
2022/04/30 02:01:14;;;;;;;3.40;1.75;;;14.80;96.70;;;;;;5051766;28;20079;-77
2022/04/30 02:03:44;;;;;;;3.28;1.80;;;14.80;96.70;;;;;;5047581;28;20095;-76
2022/04/30 02:06:12;;;;;;;2.85;1.65;;;14.80;96.70;;;;;;5067745;28;20036;-76
2022/04/30 02:08:40;;;;;;;2.70;1.58;;;14.70;96.70;;;;;;5052269;28;20091;-76
2022/04/30 02:11:11;;;;;;;3.00;1.90;;;14.70;96.70;;;;;;5054075;28;20047;-76
2022/04/30 02:13:40;;;;;;;2.95;1.60;;;14.50;96.70;;;;;;5053194;28;20044;-76
2022/04/30 02:16:09;;;;;;;2.47;1.60;;;14.40;96.70;;;;;;5048419;28;20047;-76
2022/04/30 02:18:37;;;;;;;8.77;1.65;;;14.40;96.70;;;;;;5044739;28;20049;-76
2022/04/30 02:21:06;;;;;;;2.42;1.48;;;14.30;96.70;;;;;;5051817;28;20050;-76
2022/04/30 02:23:34;;;;;;;3.38;1.85;;;14.20;96.70;;;;;;5073566;28;20461;-76
2022/04/30 02:26:04;;;;;;;1.75;1.45;;;14.20;96.70;;;;;;5052866;28;20036;-76
2022/04/30 02:28:34;;;;;;;2.72;1.50;;;14.20;96.70;;;;;;5054051;28;20099;-76
2022/04/30 02:31:02;;;;;;;3.83;1.80;;;14.10;96.70;;;;;;5057163;28;20102;-76
2022/04/30 02:33:30;;;;;;;2.67;1.42;;;14.00;96.70;;;;;;5071788;28;20546;-76
2022/04/30 02:35:58;;;;;;;2.55;1.65;;;13.90;96.70;;;;;;5054934;28;20043;-76
2022/04/30 02:38:26;;;;;;;2.75;1.58;;;13.80;96.70;;;;;;5057239;28;20049;-76
2022/04/30 02:40:54;;;;;;;1.90;1.35;;;13.80;96.70;;;;;;5047099;28;21453;-76
2022/04/30 02:43:26;;;;;;;2.00;1.60;;;13.80;96.70;;;;;;5049252;28;20514;-76
2022/04/30 02:45:55;;;;;;;3.67;2.20;;;13.90;96.70;;;;;;5056489;28;20498;-76
2022/04/30 02:48:23;;;;;;;2.92;1.50;;;13.90;96.70;;;;;;5054441;28;20045;-76
2022/04/30 02:50:55;;;;;;;3.55;1.92;;;13.90;96.70;;;;;;5053444;28;20040;-76
2022/04/30 02:53:22;;;;;;;4.10;2.08;;;14.00;96.70;;;;;;5061333;28;20103;-75
2022/04/30 02:55:50;;;;;;;3.38;1.90;;;13.90;96.70;;;;;;5069044;28;20548;-76
2022/04/30 03:01:05;;;;;;;3.53;1.90;;;13.80;96.70;;;;;;5055790;28;20044;-76
2022/04/30 03:03:50;;;;;;;2.00;1.65;;;13.90;96.70;;;;;;5052321;28;20107;-75
2022/04/30 03:06:18;;;;;;;3.63;1.80;;;13.70;96.70;;;;;;5068684;28;20045;-76
2022/04/30 03:08:49;;;;;;;4.45;1.95;;;13.80;96.70;;;;;;5054024;28;20041;-76
2022/04/30 03:11:19;;;;;;;2.95;1.77;;;13.80;96.70;;;;;;5071035;28;20642;-76
2022/04/30 03:13:47;;;;;;;2.35;1.80;;;13.60;96.70;;;;;;5051253;28;20041;-77
2022/04/30 03:21:56;;;;;;;5.53;1.95;;;13.90;96.70;;;;;;5053623;28;20040;-76
2022/04/30 03:24:27;;;;;;;2.72;1.98;;;13.80;96.70;;;;;;5059353;28;20045;-76
2022/04/30 03:26:54;;;;;;;3.75;1.83;;;13.80;96.70;;;;;;5056654;28;20080;-76
2022/04/30 03:29:23;;;;;;;3.10;2.00;;;13.60;96.70;;;;;;5054260;28;20048;-76
2022/04/30 03:31:52;;;;;;;2.38;1.83;;;13.60;96.70;;;;;;5059483;28;20049;-76
2022/04/30 03:34:20;;;;;;;3.78;1.70;;;13.40;96.70;;;;;;5055077;28;20579;-76
2022/04/30 03:36:48;;;;;;;2.20;1.80;;;13.40;96.70;;;;;;5074844;28;20570;-76
2022/04/30 03:39:16;;;;;;;2.15;1.50;;;13.30;96.70;;;;;;5049740;28;20485;-76
2022/04/30 03:41:43;;;;;;;2.35;1.42;;;13.30;96.70;;;;;;5051952;28;20051;-75
2022/04/30 03:44:11;;;;;;;2.38;1.90;;;13.40;96.70;;;;;;5054499;28;20055;-76
2022/04/30 03:46:39;;;;;;;2.85;1.80;;;13.40;96.70;;;;;;5059690;28;20048;-75
2022/04/30 03:49:08;;;;;;;2.67;1.60;;;13.40;96.70;;;;;;5059215;28;20498;-76
2022/04/30 03:51:36;;;;;;;3.33;1.98;;;13.40;96.70;;;;;;5072460;28;20114;-76
2022/04/30 03:54:04;;;;;;;2.35;1.70;;;13.40;96.70;;;;;;5055997;28;20033;-76
2022/04/30 03:56:32;;;;;;;3.05;1.70;;;13.50;96.70;;;;;;5057333;28;20052;-76
2022/04/30 03:59:00;;;;;;;3.17;1.88;;;13.30;96.70;;;;;;5059909;28;20047;-75
2022/04/30 04:01:28;;;;;;;1.98;1.67;;;13.40;96.70;;;;;;5059629;28;20041;-76
2022/04/30 04:03:59;;;;;;;2.45;1.63;;;13.40;96.70;;;;;;5062258;28;20064;-76
2022/04/30 04:06:28;;;;;;;2.70;1.75;;;13.40;96.70;;;;;;5052841;28;20448;-76
2022/04/30 04:08:58;;;;;;;2.25;1.50;;;13.40;96.70;;;;;;5048790;28;20075;-76
2022/04/30 04:11:26;;;;;;;3.67;1.80;;;13.30;96.70;;;;;;5038240;28;20553;-76
2022/04/30 04:19:30;;;;;;;3.33;1.65;;;12.80;96.70;;;;;;5053092;28;20041;-76
2022/04/30 04:22:00;;;;;;;5.95;2.38;;;13.00;96.70;;;;;;5067778;28;20056;-76
2022/04/30 04:27:17;;;;;;;4.45;2.10;;;12.80;96.70;;;;;;5052177;28;20049;-75
2022/04/30 04:29:46;;;;;;;2.88;2.00;;;12.90;96.70;;;;;;5058610;28;20707;-76
2022/04/30 04:32:14;;;;;;;5.80;1.85;;;13.00;96.70;;;;;;5058917;28;20132;-76
2022/04/30 04:34:42;;;;;;;6.65;2.03;;;13.00;96.70;;;;;;5060007;28;20551;-75
2022/04/30 04:37:28;;;;;;;2.92;2.10;;;13.00;96.70;;;;;;5060278;28;20040;-77
2022/04/30 04:39:56;;;;;;;4.00;2.28;;;13.10;96.70;;;;;;5053010;28;20625;-75
2022/04/30 04:42:24;;;;;;;2.97;2.20;;;13.10;96.70;;;;;;5049117;28;20119;-76
2022/04/30 04:44:52;;;;;;;4.80;2.25;;;13.10;96.70;;;;;;5049070;28;20114;-76
2022/04/30 04:47:20;;;;;;;3.47;1.80;;;13.20;96.70;;;;;;5052505;28;20057;-75
2022/04/30 04:49:48;;;;;;;2.20;2.00;;;13.10;96.70;;;;;;5075750;28;20045;-76
2022/04/30 04:52:15;;;;;;;4.57;2.33;;;13.20;96.70;;;;;;5062185;28;20830;-76
2022/04/30 04:54:45;;;;;;;3.40;1.98;;;13.20;96.70;;;;;;5071126;28;20536;-76
2022/04/30 04:57:15;;;;;;;3.65;1.95;;;13.10;96.70;;;;;;5056394;28;20060;-76
2022/04/30 04:59:42;;;;;;;2.70;1.50;;;13.20;96.70;;;;;;5050065;28;20040;-76
2022/04/30 05:02:10;;;;;;;2.70;2.15;;;13.20;96.70;;;;;;5052731;28;20045;-76
2022/04/30 05:04:39;;;;;;;3.28;1.95;;;13.30;96.70;;;;;;5059271;28;20105;-76
2022/04/30 05:07:08;;;;;;;4.43;1.92;;;13.30;96.70;;;;;;5048930;28;20052;-76
2022/04/30 05:09:36;;;;;;;3.78;2.17;;;13.50;96.70;;;;;;5054671;28;20048;-77
2022/04/30 05:12:07;;;;;;;3.83;2.58;;;13.60;96.70;;;;;;5055167;28;20049;-76
2022/04/30 05:14:35;;;;;;;5.07;2.08;;;13.60;96.70;;;;;;5052540;28;20049;-76
2022/04/30 05:17:05;;;;;;;4.88;2.50;;;13.60;96.70;;;;;;5048961;28;20040;-76
2022/04/30 05:19:33;;;;;;;4.03;2.47;;;13.60;96.70;;;;;;5050975;28;20044;-76
2022/04/30 05:22:01;;;;;;;3.78;2.40;;;13.50;96.70;;;;;;5058324;28;20051;-76
2022/04/30 05:24:29;;;;;;;4.03;2.17;;;13.60;96.70;;;;;;5061344;28;20498;-76
2022/04/30 05:26:57;;;;;;;2.55;2.08;;;13.70;96.70;;;;;;5058891;28;20124;-77
2022/04/30 05:29:27;;;;;;;4.03;2.00;;;13.70;96.70;;;;;;5051010;28;20037;-77
2022/04/30 05:31:55;;;;;;;5.25;2.30;;;13.90;96.70;;;;;;5069502;28;20061;-76
2022/04/30 05:34:23;;;;;;;8.80;2.25;;;13.90;96.70;;;;;;5069050;28;20055;-75
2022/04/30 05:36:51;;;;;;;4.47;2.25;;;13.90;96.70;;;;;;5069197;28;20047;-76
2022/04/30 05:39:22;;;;;;;10.10;2.47;;;14.10;96.70;;;;;;5053536;28;20052;-76
2022/04/30 05:41:50;;;;;;;9.23;2.42;;;14.30;96.70;;;;;;5050819;28;20517;-77
2022/04/30 05:44:18;;;;;;;5.93;2.97;;;14.30;96.70;;;;;;5067214;28;20095;-76
2022/04/30 05:46:48;;;;;;;6.80;3.05;;;14.30;96.70;;;;;;5053114;28;20445;-75
2022/04/30 05:49:16;;;;;;;4.85;2.85;;;14.40;96.70;;;;;;5049963;28;20047;-77
2022/04/30 05:51:44;;;;;;;3.15;2.17;;;14.40;96.70;;;;;;5055770;28;20123;-77
2022/04/30 05:54:12;;;;;;;3.65;2.42;;;14.40;96.70;;;;;;5056171;28;20477;-76
2022/04/30 05:56:40;;;;;;;2.65;2.13;;;14.50;96.70;;;;;;5044757;28;20404;-77
2022/04/30 05:59:08;;;;;;;2.75;2.25;;;14.60;96.70;;;;;;5050917;28;20179;-78
2022/04/30 06:01:39;;;;;;;3.38;2.40;;;14.60;96.70;;;;;;5054215;28;20045;-77
2022/04/30 06:04:09;;;;;;;3.38;2.35;;;14.60;96.70;;;;;;5070347;28;20127;-78
2022/04/30 06:06:36;;;;;;;4.00;2.78;;;14.60;96.70;;;;;;5046451;28;20078;-77
2022/04/30 06:09:04;;;;;;;7.88;2.38;;;14.60;96.70;;;;;;5049634;28;20589;-77
2022/04/30 06:11:33;;;;;;;3.85;2.90;;;14.80;96.70;;;;;;5064766;28;20048;-77
2022/04/30 06:14:01;;;;;;;3.75;2.65;;;14.90;96.70;;;;;;5057287;28;20068;-77
2022/04/30 06:16:29;;;;;;;4.68;2.63;;;14.90;96.70;;;;;;5054811;28;20045;-78
2022/04/30 06:18:57;;;;;;;4.22;3.65;;;14.90;96.70;;;;;;5055695;28;20044;-78
2022/04/30 06:21:40;;;;;;;7.82;3.60;;;14.90;96.70;;;;;;5052758;28;20102;-76
2022/04/30 06:24:09;;;;;;;6.75;3.33;;;14.90;96.70;;;;;;5048188;28;20052;-77
2022/04/30 06:26:37;;;;;;;6.43;3.10;;;14.90;96.70;;;;;;5049313;28;20692;-78
2022/04/30 06:29:05;;;;;;;6.35;3.30;;;14.90;96.70;;;;;;5059298;28;20060;-76
2022/04/30 06:31:33;;;;;;;8.48;3.60;;;14.90;96.70;;;;;;5050216;28;20044;-76
2022/04/30 06:34:02;;;;;;;9.88;3.72;;;15.00;96.70;;;;;;5049031;28;20048;-76
2022/04/30 06:36:30;;;;;;;6.85;3.70;;;15.10;96.70;;;;;;5050291;28;20530;-76
2022/04/30 06:39:00;;;;;;;6.03;4.35;;;15.10;96.70;;;;;;5047874;28;20047;-76
2022/04/30 06:41:27;;;;;;;6.30;4.43;;;15.20;96.70;;;;;;5061264;28;20055;-75
2022/04/30 06:43:56;;;;;;;6.20;4.43;;;15.20;96.70;;;;;;5050879;28;20075;-77
2022/04/30 06:46:23;;;;;;;8.63;6.72;;;15.30;96.70;;;;;;5051695;28;20495;-77
2022/04/30 06:48:51;;;;;;;10.63;7.53;;;15.40;96.70;;;;;;5053014;28;20044;-75
2022/04/30 06:51:19;;;;;;;7.28;4.90;;;15.50;96.70;;;;;;5051067;28;20048;-79
2022/04/30 06:59:22;;;;;;;9.02;5.18;;;15.70;96.70;;;;;;5071756;28;20044;-76
2022/04/30 07:02:00;;;;;;;7.05;4.47;;;15.90;96.70;;;;;;5046651;28;20044;-76
2022/04/30 07:04:32;;;;;;;6.82;4.43;;;15.90;96.70;;;;;;5052863;28;20123;-76
2022/04/30 07:07:01;;;;;;;5.38;3.90;;;15.90;96.70;;;;;;5055262;28;20370;-76
2022/04/30 07:09:32;;;;;;;5.28;3.85;;;16.00;96.70;;;;;;5051365;28;20051;-76
2022/04/30 07:12:04;;;;;;;6.68;4.07;;;16.10;96.70;;;;;;5053224;28;20037;-76
2022/04/30 07:14:35;;;;;;;6.35;4.30;;;16.20;96.70;;;;;;5050701;28;20124;-76
2022/04/30 07:17:04;;;;;;;4.95;4.00;;;16.30;96.70;;;;;;5056398;28;20513;-76
2022/04/30 07:19:32;;;;;;;5.93;4.40;;;16.40;96.70;;;;;;5074611;28;20071;-76
2022/04/30 07:22:01;;;;;;;6.03;3.60;;;16.40;96.70;;;;;;5056414;28;20052;-76
2022/04/30 07:24:31;;;;;;;5.30;3.72;;;16.50;96.70;;;;;;5055251;28;20032;-76
2022/04/30 07:26:59;;;;;;;5.45;3.92;;;16.50;96.70;;;;;;5053090;28;20117;-76
2022/04/30 07:29:28;;;;;;;4.90;3.60;;;16.60;96.70;;;;;;5053411;28;20047;-75
2022/04/30 07:31:56;;;;;;;5.80;3.15;;;16.70;96.70;;;;;;5062080;28;20516;-76
2022/04/30 07:34:23;;;;;;;3.85;2.90;;;16.80;96.70;;;;;;5050523;28;20463;-76
2022/04/30 07:36:51;;;;;;;4.35;3.08;;;16.90;96.70;;;;;;5046951;28;20049;-77
2022/04/30 07:39:19;;;;;;;10.85;3.92;;;17.00;96.70;;;;;;5050181;28;20056;-76
2022/04/30 07:41:53;;;;;;;7.25;4.28;;;17.10;96.70;;;;;;5057058;28;20094;-76
2022/04/30 07:44:21;;;;;;;4.53;3.17;;;17.30;96.70;;;;;;5053600;28;20056;-78
2022/04/30 07:46:50;;;;;;;6.25;3.20;;;17.50;96.70;;;;;;5051175;28;20110;-79
2022/04/30 07:49:18;;;;;;;2.85;2.58;;;17.60;96.70;;;;;;5054424;28;20094;-79
2022/04/30 07:51:58;;;;;;;3.92;2.88;;;17.70;96.70;;;;;;5050937;28;20056;-78
2022/04/30 07:54:26;;;;;;;4.00;2.63;;;17.90;96.70;;;;;;5068133;28;20083;-78
2022/04/30 07:56:55;;;;;;;5.03;2.55;;;18.00;96.70;;;;;;5055774;28;20048;-78
2022/04/30 07:59:23;;;;;;;2.58;1.83;;;18.10;96.70;;;;;;5051861;28;20502;-78
2022/04/30 08:01:53;;;;;;;4.88;2.88;;;18.30;96.70;;;;;;5058803;28;20048;-78
2022/04/30 08:04:21;;;;;;;6.57;2.45;;;18.50;95.80;;;;;;5060218;28;20040;-78
2022/04/30 08:06:49;;;;;;;3.25;2.20;;;18.60;96.00;;;;;;5048340;28;20045;-77
2022/04/30 08:09:17;;;;;;;6.13;1.85;;;18.70;95.40;;;;;;5053326;28;20559;-78
2022/04/30 08:11:45;;;;;;;4.60;2.47;;;18.80;95.50;;;;;;5037519;28;20574;-77
2022/04/30 08:14:13;;;;;;;4.60;2.60;;;18.80;95.30;;;;;;5059095;28;20486;-78
2022/04/30 08:16:41;;;;;;;3.95;2.40;;;19.00;94.70;;;;;;5058617;28;20045;-77
2022/04/30 08:19:11;;;;;;;5.82;2.17;;;19.10;93.60;;;;;;5057654;28;20066;-77
2022/04/30 08:21:39;;;;;;;2.38;2.03;;;19.00;94.20;;;;;;5040215;28;20043;-76
2022/04/30 08:24:27;;;;;;;3.55;2.10;;;19.10;93.20;;;;;;5056978;28;20416;-76
2022/04/30 08:26:56;;;;;;;4.85;1.80;;;19.10;92.90;;;;;;5068906;28;20060;-76
2022/04/30 08:29:26;;;;;;;3.10;1.70;;;19.30;91.50;;;;;;5052748;28;20114;-76
2022/04/30 08:31:54;;;;;;;3.92;1.70;;;19.60;89.70;;;;;;5052486;28;20041;-76
2022/04/30 08:34:23;;;;;;;4.05;1.77;;;19.70;89.10;;;;;;5048239;28;20059;-77
2022/04/30 08:36:51;;;;;;;2.97;1.98;;;19.80;89.10;;;;;;5053474;28;20118;-76
2022/04/30 08:39:19;;;;;;;2.70;1.92;;;19.90;87.50;;;;;;5056577;28;20071;-77
2022/04/30 08:41:47;;;;;;;3.35;1.73;;;20.00;87.40;;;;;;5068267;28;20481;-76
2022/04/30 08:44:16;;;;;;;1.98;1.50;;;19.90;87.90;;;;;;5052227;28;20123;-75
2022/04/30 08:46:45;;;;;;;2.90;1.90;;;19.80;87.60;;;;;;5058502;28;20581;-75
2022/04/30 08:49:14;;;;;;;2.75;1.83;;;19.90;88.30;;;;;;5064976;28;20768;-75
2022/04/30 08:51:43;;;;;;;2.08;1.60;;;20.10;88.70;;;;;;5054857;28;20641;-76
2022/04/30 08:54:11;;;;;;;5.43;2.13;;;20.30;88.20;;;;;;5070484;28;20059;-76
2022/04/30 08:56:50;;;;;;;2.47;1.60;;;20.30;87.70;;;;;;5055232;28;20059;-76
2022/04/30 08:59:18;;;;;;;3.65;2.50;;;20.30;87.60;;;;;;5052247;28;20075;-77
2022/04/30 09:01:46;;;;;;;5.57;2.92;;;20.50;87.70;;;;;;5074944;28;20048;-77
2022/04/30 09:04:14;;;;;;;4.00;2.00;;;20.60;86.70;;;;;;5078677;28;20477;-76
2022/04/30 09:06:49;;;;;;;2.35;1.60;;;20.70;86.10;;;;;;5064717;28;20048;-76
2022/04/30 09:09:23;;;;;;;2.70;1.80;;;20.80;84.90;;;;;;5050674;28;20652;-77
2022/04/30 09:11:57;;;;;;;2.10;1.65;;;20.90;84.50;;;;;;5056932;28;20494;-76
2022/04/30 09:14:25;;;;;;;4.32;1.90;;;21.00;85.20;;;;;;5054798;28;20052;-77
2022/04/30 09:17:05;;;;;;;5.68;1.70;;;21.20;84.30;;;;;;5056711;28;20042;-77
2022/04/30 09:19:33;;;;;;;16.80;2.55;;;21.40;83.00;;;;;;5069655;28;20117;-76
2022/04/30 09:22:03;;;;;;;5.90;2.80;;;21.40;84.10;;;;;;5059417;28;20045;-78
2022/04/30 09:24:31;;;;;;;3.97;2.15;;;21.50;84.60;;;;;;5069744;28;20630;-78
2022/04/30 09:27:04;;;;;;;2.92;1.92;;;21.60;83.70;;;;;;5072279;28;20407;-78
2022/04/30 09:29:32;;;;;;;4.85;1.92;;;21.60;82.90;;;;;;5050913;28;20091;-78
2022/04/30 09:32:00;;;;;;;4.95;1.75;;;21.70;83.70;;;;;;5055351;28;20580;-78
2022/04/30 09:37:49;;;;;;;5.15;1.27;;;21.80;83.60;;;;;;5054162;28;20048;-77
2022/04/30 09:40:22;;;;;;;5.68;1.40;;;22.00;83.00;;;;;;5046794;28;20080;-77
2022/04/30 09:42:50;;;;;;;2.50;1.70;;;22.20;81.90;;;;;;5049292;28;20044;-77
2022/04/30 09:45:26;;;;;;;1.70;1.40;;;22.10;81.40;;;;;;5058618;28;20370;-77
2022/04/30 09:47:55;;;;;;;2.80;1.58;;;22.30;80.80;;;;;;5053729;28;20040;-77
2022/04/30 09:56:08;;;;;;;3.15;2.08;;;22.30;81.50;;;;;;5051790;28;20076;-77
2022/04/30 09:58:41;;;;;;;2.45;1.67;;;22.20;81.60;;;;;;5056169;28;20091;-79
2022/04/30 10:01:13;;;;;;;3.30;1.30;;;22.00;81.20;;;;;;5058648;28;20115;-79
2022/04/30 10:03:42;;;;;;;3.42;1.30;;;22.00;80.00;;;;;;5035348;28;20528;-79
2022/04/30 10:06:11;;;;;;;2.25;1.80;;;21.90;80.20;;;;;;5054093;28;20078;-78
2022/04/30 10:08:42;;;;;;;4.45;1.20;;;22.00;80.40;;;;;;5051229;28;20410;-78
2022/04/30 10:11:26;;;;;;;3.10;1.40;;;22.00;80.50;;;;;;5051285;28;20151;-78
2022/04/30 10:14:05;;;;;;;3.25;1.35;;;22.10;81.20;;;;;;5060488;28;20045;-78
2022/04/30 10:16:34;;;;;;;3.25;1.42;;;22.30;81.60;;;;;;5049172;28;20040;-77
2022/04/30 10:19:16;;;;;;;2.67;1.17;;;22.40;81.20;;;;;;5051439;28;20052;-78
2022/04/30 10:21:44;;;;;;;2.97;1.17;;;22.50;80.20;;;;;;5069716;28;20094;-78
2022/04/30 10:24:14;;;;;;;5.20;1.38;;;22.60;79.90;;;;;;5053133;28;20106;-77
2022/04/30 10:27:00;;;;;;;2.45;1.25;;;22.40;82.50;;;;;;5052393;28;20075;-77
2022/04/30 10:29:28;;;;;;;4.20;2.00;;;22.30;82.90;;;;;;5055571;28;20474;-78
2022/04/30 10:31:56;;;;;;;4.95;4.43;;;22.50;82.20;;;;;;5056045;28;20047;-77
2022/04/30 10:34:31;;;;;;;2.60;1.65;;;22.30;79.90;;;;;;5046654;28;20437;-78
2022/04/30 10:37:02;;;;;;;3.20;1.60;;;22.50;80.10;;;;;;5036643;28;20053;-77
2022/04/30 10:39:31;;;;;;;3.35;1.33;;;22.80;79.50;;;;;;5050555;28;20135;-77
2022/04/30 10:41:59;;;;;;;2.58;1.30;;;23.00;77.70;;;;;;5049595;28;20163;-77
2022/04/30 10:44:29;;;;;;;2.40;1.40;;;23.20;78.60;;;;;;5049141;28;20494;-77
2022/04/30 10:47:08;;;;;;;2.63;1.40;;;23.30;77.60;;;;;;5047622;28;20044;-77
2022/04/30 10:49:36;;;;;;;1.58;1.30;;;23.50;78.70;;;;;;5065249;28;20045;-77
2022/04/30 10:52:05;;;;;;;1.85;1.48;;;23.60;77.70;;;;;;5052944;28;20037;-77
2022/04/30 10:54:37;;;;;;;1.92;1.50;;;23.70;78.00;;;;;;5068627;28;20057;-76
2022/04/30 10:57:05;;;;;;;1.58;1.27;;;23.70;77.10;;;;;;5062071;28;20048;-76
2022/04/30 10:59:33;;;;;;;2.40;1.75;;;23.90;77.00;;;;;;5046196;28;20543;-76
2022/04/30 11:02:02;;;;;;;1.60;1.42;;;23.90;75.30;;;;;;5056959;28;20148;-77
2022/04/30 11:04:31;;;;;;;2.05;1.42;;;23.90;75.70;;;;;;5066655;28;20068;-77
2022/04/30 11:07:00;;;;;;;2.17;1.30;;;23.60;75.40;;;;;;5068022;28;20052;-76
2022/04/30 11:09:28;;;;;;;2.03;1.20;;;23.40;76.00;;;;;;5067095;28;20494;-77
2022/04/30 11:11:58;;;;;;;2.83;1.25;;;23.40;76.70;;;;;;5054456;28;21374;-76
2022/04/30 11:14:29;;;;;;;5.35;1.27;;;23.60;75.80;;;;;;5058698;28;20098;-76
2022/04/30 11:16:57;;;;;;;1.80;1.10;;;23.80;75.90;;;;;;5064186;28;20055;-76
2022/04/30 11:19:26;;;;;;;2.65;1.40;;;24.00;75.80;;;;;;5057389;28;20140;-77
2022/04/30 11:21:55;;;;;;;2.78;1.02;;;24.20;74.40;;;;;;5058851;28;20468;-76
2022/04/30 11:24:25;;;;;;;4.00;1.30;;;24.30;75.00;;;;;;5055051;28;20790;-77
2022/04/30 11:26:55;;;;;;;1.50;1.17;;;24.10;75.50;;;;;;5054161;28;20059;-77
2022/04/30 11:29:25;;;;;;;1.75;1.23;;;23.90;76.00;;;;;;5052105;28;20048;-76
2022/04/30 11:31:54;;;;;;;1.70;1.30;;;24.10;75.90;;;;;;5062979;28;20584;-76
2022/04/30 11:34:23;;;;;;;2.22;1.45;;;24.30;76.00;;;;;;5054542;28;20064;-76
2022/04/30 11:36:53;;;;;;;3.05;1.30;;;24.40;74.70;;;;;;5049274;28;20118;-76
2022/04/30 11:39:22;;;;;;;3.35;1.17;;;23.90;74.00;;;;;;5051192;28;20110;-76
2022/04/30 11:41:52;;;;;;;16.98;1.70;;;23.70;73.70;;;;;;5053781;28;20053;-76
2022/04/30 11:44:21;;;;;;;2.10;1.20;;;24.10;74.70;;;;;;5053525;28;20053;-76
2022/04/30 11:46:52;;;;;;;1.27;0.90;;;24.50;73.70;;;;;;5054125;28;20047;-77
2022/04/30 11:49:22;;;;;;;2.22;1.45;;;24.60;72.70;;;;;;5062214;28;20044;-77
2022/04/30 11:52:06;;;;;;;2.00;1.80;;;24.80;73.20;;;;;;5050700;28;20126;-77
2022/04/30 11:54:38;;;;;;;2.28;1.30;;;24.40;72.00;;;;;;5050703;28;20654;-77
2022/04/30 11:57:07;;;;;;;2.22;1.27;;;24.30;72.50;;;;;;5055635;28;20419;-76
2022/04/30 11:59:37;;;;;;;2.00;1.30;;;24.50;71.80;;;;;;5054229;28;20094;-77
2022/04/30 12:02:09;;;;;;;2.53;1.30;;;24.70;71.00;;;;;;5052808;28;20068;-76
2022/04/30 12:04:42;;;;;;;2.33;1.10;;;24.90;70.50;;;;;;5058128;28;20051;-76
2022/04/30 12:07:11;;;;;;;2.50;1.20;;;25.10;69.50;;;;;;5053941;28;20102;-76
2022/04/30 12:09:44;;;;;;;4.10;1.23;;;25.20;68.90;;;;;;5058623;28;20122;-76
2022/04/30 12:12:19;;;;;;;1.40;0.80;;;25.30;69.30;;;;;;5066410;28;20059;-77
2022/04/30 12:14:54;;;;;;;3.00;1.25;;;25.50;70.20;;;;;;5049584;28;20044;-77
2022/04/30 12:17:29;;;;;;;2.20;1.00;;;25.60;70.70;;;;;;5060465;28;20044;-76
2022/04/30 12:25:17;;;;;;;1.45;1.17;;;25.60;69.40;;;;;;5074771;28;20041;-75
2022/04/30 12:27:52;;;;;;;3.00;1.33;;;25.70;70.10;;;;;;5055884;28;20460;-76
2022/04/30 12:30:50;;;;;;;2.40;1.05;;;25.70;68.50;;;;;;5060193;28;20124;-78
2022/04/30 12:33:20;;;;;;;2.33;1.17;;;25.70;68.10;;;;;;5069869;28;20139;-78
2022/04/30 12:35:55;;;;;;;1.05;0.90;;;25.60;68.70;;;;;;5055066;28;20051;-78
2022/04/30 12:38:23;;;;;;;2.75;1.10;;;25.40;70.40;;;;;;5049171;28;20615;-78
2022/04/30 12:40:53;;;;;;;1.60;1.13;;;25.70;69.80;;;;;;5061958;28;20033;-78
2022/04/30 12:43:21;;;;;;;3.35;2.53;;;25.90;68.50;;;;;;5050737;28;20452;-78
2022/04/30 12:45:49;;;;;;;7.57;6.13;;;25.90;68.90;;;;;;5058686;28;20048;-79
2022/04/30 12:48:17;;;;;;;2.90;1.45;;;26.00;70.20;;;;;;5057774;28;20048;-79
2022/04/30 12:50:46;;;;;;;2.45;1.60;;;26.10;69.10;;;;;;5067463;28;20068;-80
2022/04/30 12:53:14;;;;;;;2.35;1.13;;;26.00;68.00;;;;;;5054749;28;20520;-79
2022/04/30 12:55:42;;;;;;;2.75;1.52;;;25.90;68.40;;;;;;5050378;28;20033;-79
2022/04/30 12:58:11;;;;;;;2.22;1.23;;;26.00;69.80;;;;;;5060624;28;20126;-79
2022/04/30 13:00:40;;;;;;;2.97;1.20;;;26.00;70.10;;;;;;5055132;28;20044;-76
2022/04/30 13:03:08;;;;;;;3.45;1.80;;;25.90;68.90;;;;;;5051780;28;20522;-78
2022/04/30 13:05:37;;;;;;;2.58;1.30;;;25.70;70.50;;;;;;5052322;28;20047;-79
2022/04/30 13:08:07;;;;;;;3.08;1.17;;;25.60;69.80;;;;;;5051591;28;20045;-78
2022/04/30 13:13:37;;;;;;;2.65;1.10;;;25.70;69.90;;;;;;5057291;28;20115;-78
2022/04/30 13:16:09;;;;;;;2.70;1.20;;;25.90;68.80;;;;;;5056096;28;20526;-78
2022/04/30 13:18:37;;;;;;;2.75;1.30;;;25.70;69.00;;;;;;5069926;28;20461;-78
2022/04/30 13:21:06;;;;;;;1.80;0.95;;;25.50;69.90;;;;;;5052666;28;20401;-76
2022/04/30 13:23:36;;;;;;;2.45;1.08;;;25.90;69.70;;;;;;5056260;28;20041;-75
2022/04/30 13:26:05;;;;;;;2.28;1.00;;;26.30;69.40;;;;;;5048578;28;20045;-75
2022/04/30 13:28:33;;;;;;;1.58;0.88;;;26.50;69.20;;;;;;5054887;28;20048;-75
2022/04/30 13:31:01;;;;;;;2.45;1.85;;;26.50;68.80;;;;;;5056739;28;20139;-74
2022/04/30 13:33:29;;;;;;;2.38;1.10;;;26.80;69.30;;;;;;5056113;28;20094;-75
2022/04/30 13:35:58;;;;;;;2.47;1.27;;;27.10;67.10;;;;;;5049708;28;20059;-76
2022/04/30 13:38:26;;;;;;;1.50;1.35;;;27.20;66.60;;;;;;5057517;28;20101;-76
2022/04/30 13:40:57;;;;;;;2.55;1.15;;;27.60;68.30;;;;;;5064586;28;20053;-76
2022/04/30 13:43:25;;;;;;;1.85;0.98;;;27.60;66.40;;;;;;5078631;28;20109;-75